Time;durP1;ratioP1;P1;durP2;ratioP2;P2;SDS_P1;SDS_P2;PMS_P1;PMS_P2;Temp;Humidity;BMP_temperature;BMP_pressure;BME280_temperature;BME280_humidity;BME280_pressure;Samples;Min_cycle;Max_cycle;Signal;HPM_P1;HPM_P2
2022/03/31 00:00:46;;;;;;;17.57;9.60;;;11.90;51.40;;;;;;5129871;27;20505;-85
2022/03/31 00:03:16;;;;;;;19.67;11.57;;;12.00;51.30;;;;;;5130950;27;20483;-85
2022/03/31 00:05:44;;;;;;;17.00;9.73;;;12.00;50.00;;;;;;5113263;27;20462;-84
2022/03/31 00:08:13;;;;;;;12.97;8.50;;;11.90;49.50;;;;;;5130091;27;20556;-84
2022/03/31 00:10:42;;;;;;;15.70;8.80;;;11.80;49.70;;;;;;5129088;27;20472;-84
2022/03/31 00:13:13;;;;;;;13.57;8.73;;;11.80;49.90;;;;;;5130628;27;20442;-84
2022/03/31 00:15:41;;;;;;;14.47;9.73;;;11.90;50.60;;;;;;5130941;27;20804;-82
2022/03/31 00:18:10;;;;;;;17.43;9.43;;;11.70;49.60;;;;;;5129010;27;20459;-84
2022/03/31 00:20:37;;;;;;;16.73;8.90;;;11.80;51.10;;;;;;5129793;27;20468;-84
2022/03/31 00:23:05;;;;;;;18.03;9.63;;;11.90;50.70;;;;;;5129973;27;20452;-84
2022/03/31 00:25:32;;;;;;;14.77;9.63;;;12.00;50.70;;;;;;5128379;27;20922;-82
2022/03/31 00:28:01;;;;;;;14.73;8.60;;;12.10;51.00;;;;;;5129729;27;20457;-83
2022/03/31 00:30:29;;;;;;;15.93;8.47;;;12.10;50.90;;;;;;5128016;27;20468;-85
2022/03/31 00:32:57;;;;;;;14.87;10.13;;;12.20;50.60;;;;;;5128286;27;20452;-84
2022/03/31 00:35:25;;;;;;;16.33;10.13;;;12.20;50.70;;;;;;5130998;27;20479;-84
2022/03/31 00:37:53;;;;;;;13.73;9.30;;;12.20;50.60;;;;;;5129885;27;20963;-83
2022/03/31 00:40:22;;;;;;;18.63;11.07;;;12.30;50.50;;;;;;5132050;27;20469;-82
2022/03/31 00:42:51;;;;;;;18.80;10.23;;;12.20;50.20;;;;;;5134874;27;20534;-83
2022/03/31 00:45:19;;;;;;;16.27;9.37;;;12.10;50.20;;;;;;5132620;27;20448;-84
2022/03/31 00:47:47;;;;;;;19.30;9.70;;;12.20;50.00;;;;;;5134385;27;20513;-84
2022/03/31 00:50:15;;;;;;;14.23;8.27;;;12.20;49.80;;;;;;5133238;27;20477;-84
2022/03/31 00:52:44;;;;;;;13.47;8.13;;;12.20;50.00;;;;;;5136261;27;20449;-84
2022/03/31 00:55:14;;;;;;;17.80;8.50;;;12.10;49.80;;;;;;5133202;27;20450;-84
2022/03/31 00:57:43;;;;;;;16.30;9.03;;;12.10;49.90;;;;;;5132867;27;20445;-84
2022/03/31 01:00:11;;;;;;;15.67;9.27;;;11.90;50.10;;;;;;5130820;27;20963;-84
2022/03/31 01:02:39;;;;;;;16.03;9.23;;;11.80;50.00;;;;;;5133066;27;20895;-84
2022/03/31 01:05:07;;;;;;;15.10;9.10;;;11.70;50.40;;;;;;5132133;27;20448;-84
2022/03/31 01:07:35;;;;;;;18.23;11.00;;;11.80;50.40;;;;;;5133294;27;20480;-83
2022/03/31 01:10:05;;;;;;;19.40;11.60;;;11.80;50.50;;;;;;5115830;27;20466;-84
2022/03/31 01:12:33;;;;;;;17.20;9.90;;;11.80;50.70;;;;;;5136200;27;20959;-85
2022/03/31 01:15:12;;;;;;;11.93;8.70;;;11.90;51.20;;;;;;5133918;27;20453;-84
2022/03/31 01:17:40;;;;;;;14.37;7.50;;;11.90;50.20;;;;;;5135090;27;20452;-84
2022/03/31 01:20:10;;;;;;;17.93;8.57;;;11.90;50.20;;;;;;5131438;27;22688;-85
2022/03/31 01:22:37;;;;;;;17.57;8.60;;;11.70;50.50;;;;;;5135973;27;20441;-84
2022/03/31 01:25:09;;;;;;;18.77;9.23;;;11.50;50.70;;;;;;5114579;27;20826;-84
2022/03/31 01:27:38;;;;;;;18.30;11.27;;;11.40;51.20;;;;;;5132835;27;20507;-83
2022/03/31 01:30:07;;;;;;;17.23;9.50;;;11.60;51.00;;;;;;5132588;27;20470;-85
2022/03/31 01:32:34;;;;;;;14.90;10.33;;;11.60;50.80;;;;;;5134429;27;20445;-84
2022/03/31 01:35:01;;;;;;;18.00;9.70;;;11.70;51.50;;;;;;5132326;27;20668;-85
2022/03/31 01:37:29;;;;;;;18.40;10.33;;;11.80;51.10;;;;;;5132652;27;20532;-81
2022/03/31 01:39:56;;;;;;;20.03;10.20;;;11.80;50.40;;;;;;5133204;27;20535;-84
2022/03/31 01:42:25;;;;;;;16.43;10.03;;;11.80;50.20;;;;;;5131684;27;20450;-85
2022/03/31 01:44:52;;;;;;;17.40;10.90;;;11.60;50.00;;;;;;5130836;27;20445;-84
2022/03/31 01:47:19;;;;;;;14.83;9.67;;;11.70;50.30;;;;;;5116895;27;21004;-83
2022/03/31 01:49:46;;;;;;;17.53;10.20;;;11.70;50.30;;;;;;5135243;27;20890;-84
2022/03/31 01:52:13;;;;;;;14.50;9.50;;;11.80;50.50;;;;;;5133517;27;20461;-83
2022/03/31 01:54:42;;;;;;;20.57;11.10;;;11.70;50.30;;;;;;5131028;27;20452;-84
2022/03/31 01:57:09;;;;;;;17.40;9.80;;;11.80;50.60;;;;;;5130249;27;20510;-85
2022/03/31 01:59:40;;;;;;;15.83;9.33;;;11.80;50.30;;;;;;5132241;27;20945;-84
2022/03/31 02:02:08;;;;;;;16.73;9.70;;;11.80;51.20;;;;;;5129360;27;20475;-84
2022/03/31 02:04:36;;;;;;;22.20;10.67;;;11.80;51.20;;;;;;5132826;27;21249;-84
2022/03/31 02:07:03;;;;;;;21.30;10.53;;;11.80;50.00;;;;;;5132863;27;20956;-82
2022/03/31 02:09:30;;;;;;;20.33;10.53;;;11.80;51.10;;;;;;5130633;27;20452;-85
2022/03/31 02:11:58;;;;;;;19.93;10.37;;;11.80;50.80;;;;;;5132275;27;20967;-84
2022/03/31 02:14:26;;;;;;;19.27;10.63;;;11.80;50.40;;;;;;5131229;27;20458;-84
2022/03/31 02:16:55;;;;;;;16.27;10.43;;;11.70;50.30;;;;;;5130371;27;20536;-83
2022/03/31 02:19:24;;;;;;;17.23;10.43;;;11.80;50.90;;;;;;5130494;27;20453;-84
2022/03/31 02:21:51;;;;;;;22.80;11.23;;;11.70;50.60;;;;;;5132356;27;20515;-85
2022/03/31 02:24:18;;;;;;;18.03;10.20;;;11.70;49.80;;;;;;5130407;27;20446;-83
2022/03/31 02:26:47;;;;;;;16.77;9.63;;;11.60;49.50;;;;;;5133047;27;20971;-84
2022/03/31 02:29:14;;;;;;;23.10;11.07;;;11.50;49.70;;;;;;5134295;27;20453;-85
2022/03/31 02:31:41;;;;;;;17.57;9.07;;;11.50;49.90;;;;;;5132267;27;21181;-83
2022/03/31 02:34:09;;;;;;;18.33;10.20;;;11.60;50.80;;;;;;5130223;27;20517;-84
2022/03/31 02:36:36;;;;;;;18.23;11.90;;;11.70;51.00;;;;;;5130402;27;20469;-85
2022/03/31 02:39:04;;;;;;;17.53;10.67;;;11.70;50.90;;;;;;5130018;27;20440;-84
2022/03/31 02:41:31;;;;;;;22.60;10.10;;;11.70;50.00;;;;;;5131980;27;20465;-84
2022/03/31 02:43:58;;;;;;;16.47;9.80;;;11.40;50.00;;;;;;5130426;27;20509;-83
2022/03/31 02:46:28;;;;;;;17.37;10.40;;;11.50;50.90;;;;;;5132507;27;20992;-84
2022/03/31 02:48:55;;;;;;;15.67;9.50;;;11.50;50.20;;;;;;5130961;27;20506;-84
2022/03/31 02:51:24;;;;;;;17.07;9.43;;;11.50;50.70;;;;;;5130255;27;20849;-84
2022/03/31 02:56:36;;;;;;;18.70;10.97;;;11.20;50.10;;;;;;5132844;27;20433;-84
2022/03/31 02:59:04;;;;;;;21.23;11.17;;;11.30;50.30;;;;;;5133375;27;20810;-84
2022/03/31 03:01:31;;;;;;;17.43;9.83;;;11.40;50.70;;;;;;5129168;27;20469;-85
2022/03/31 03:03:58;;;;;;;19.57;9.30;;;11.30;50.00;;;;;;5130458;27;20450;-83
2022/03/31 03:06:27;;;;;;;13.97;8.90;;;11.00;50.50;;;;;;5131967;27;20477;-85
2022/03/31 03:08:55;;;;;;;15.47;9.13;;;10.90;50.90;;;;;;5132727;27;20532;-85
2022/03/31 03:11:22;;;;;;;19.57;9.80;;;11.00;51.00;;;;;;5129089;27;20562;-85
2022/03/31 03:13:49;;;;;;;20.43;10.37;;;10.90;50.30;;;;;;5130939;27;20692;-84
2022/03/31 03:16:16;;;;;;;18.70;10.27;;;10.90;50.70;;;;;;5124671;27;20456;-84
2022/03/31 03:18:43;;;;;;;17.03;10.53;;;11.10;51.40;;;;;;5130187;27;20448;-84
2022/03/31 03:21:10;;;;;;;17.63;9.93;;;11.10;50.80;;;;;;5131546;27;20481;-83
2022/03/31 03:23:40;;;;;;;21.37;9.30;;;11.30;51.30;;;;;;5130101;27;20468;-84
2022/03/31 03:26:08;;;;;;;16.13;10.40;;;11.40;50.40;;;;;;5131193;27;20438;-84
2022/03/31 03:28:36;;;;;;;18.00;10.80;;;11.50;50.30;;;;;;5128723;27;20480;-83
2022/03/31 03:31:03;;;;;;;17.10;9.80;;;11.30;50.20;;;;;;5131424;27;20472;-83
2022/03/31 03:33:31;;;;;;;16.43;9.80;;;11.40;50.30;;;;;;5129862;27;20513;-84
2022/03/31 03:35:58;;;;;;;18.00;10.07;;;11.40;50.40;;;;;;5130321;27;20452;-84
2022/03/31 03:38:25;;;;;;;17.73;11.10;;;11.50;50.50;;;;;;5129795;27;20454;-84
2022/03/31 03:40:54;;;;;;;18.20;9.90;;;11.40;50.30;;;;;;5129776;27;20489;-84
2022/03/31 03:43:21;;;;;;;21.37;10.40;;;11.30;50.30;;;;;;5132765;27;20545;-83
2022/03/31 03:45:48;;;;;;;18.17;9.87;;;11.30;50.10;;;;;;5130988;27;20450;-83
2022/03/31 03:48:15;;;;;;;17.30;11.20;;;11.20;49.80;;;;;;5130864;27;20476;-84
2022/03/31 03:50:43;;;;;;;15.57;9.43;;;11.20;50.90;;;;;;5130130;27;20462;-84
2022/03/31 03:53:10;;;;;;;20.20;10.93;;;11.20;50.80;;;;;;5112236;27;20834;-84
2022/03/31 03:55:38;;;;;;;20.60;10.90;;;11.30;51.60;;;;;;5128188;27;20460;-84
2022/03/31 03:58:06;;;;;;;24.07;11.30;;;11.30;50.30;;;;;;5132028;27;20836;-85
2022/03/31 04:00:34;;;;;;;19.10;10.20;;;11.40;50.10;;;;;;5130122;27;20473;-83
2022/03/31 04:03:02;;;;;;;20.00;10.60;;;11.40;51.00;;;;;;5129884;27;20480;-85
2022/03/31 04:05:29;;;;;;;22.00;11.60;;;11.40;50.50;;;;;;5130366;27;21535;-84
2022/03/31 04:07:56;;;;;;;18.90;11.20;;;11.50;50.90;;;;;;5130708;27;20859;-84
2022/03/31 04:10:23;;;;;;;20.20;11.43;;;11.30;49.80;;;;;;5130504;27;20473;-85
2022/03/31 04:12:50;;;;;;;49.93;26.00;;;11.20;50.70;;;;;;5115778;27;20452;-82
2022/03/31 04:15:19;;;;;;;26.50;13.33;;;11.30;50.90;;;;;;5131880;27;20811;-84
2022/03/31 04:17:46;;;;;;;22.13;12.17;;;11.30;51.00;;;;;;5126020;27;20432;-84
2022/03/31 04:20:14;;;;;;;20.10;11.17;;;11.30;50.80;;;;;;5131208;27;20468;-84
2022/03/31 04:22:41;;;;;;;19.63;11.10;;;11.30;50.20;;;;;;5131633;27;21001;-84
2022/03/31 04:25:10;;;;;;;19.23;10.97;;;11.10;50.00;;;;;;5127881;27;20794;-83
2022/03/31 04:27:39;;;;;;;20.00;11.07;;;10.90;50.50;;;;;;5112003;27;20477;-84
2022/03/31 04:30:08;;;;;;;20.83;11.23;;;10.90;50.70;;;;;;5132360;27;20457;-83
2022/03/31 04:32:37;;;;;;;19.30;11.50;;;10.60;50.70;;;;;;5132716;27;20437;-84
2022/03/31 04:35:05;;;;;;;24.30;12.10;;;10.50;51.00;;;;;;5130579;27;20552;-83
2022/03/31 04:37:33;;;;;;;19.00;10.40;;;10.50;51.50;;;;;;5133157;27;20533;-84
2022/03/31 04:40:00;;;;;;;26.20;12.77;;;10.70;51.60;;;;;;5130393;27;20891;-84
2022/03/31 04:42:27;;;;;;;21.80;13.23;;;10.80;51.10;;;;;;5131377;27;20468;-83
2022/03/31 04:44:55;;;;;;;22.53;12.10;;;11.00;50.70;;;;;;5130677;27;20453;-84
2022/03/31 04:47:22;;;;;;;21.07;12.03;;;10.80;50.40;;;;;;5131393;27;21045;-84
2022/03/31 04:49:51;;;;;;;26.40;13.20;;;10.90;50.90;;;;;;5129498;27;20464;-83
2022/03/31 04:52:18;;;;;;;21.43;12.53;;;11.00;51.30;;;;;;5131791;27;21198;-83
2022/03/31 04:54:44;;;;;;;23.27;13.57;;;11.30;51.40;;;;;;5133073;27;20441;-83
2022/03/31 04:57:13;;;;;;;21.63;11.83;;;11.10;50.00;;;;;;5130993;27;21109;-83
2022/03/31 04:59:40;;;;;;;23.77;13.53;;;11.10;50.80;;;;;;5130285;27;20460;-84
2022/03/31 05:02:08;;;;;;;22.80;12.57;;;11.20;50.60;;;;;;5131932;27;20452;-81
2022/03/31 05:04:35;;;;;;;25.53;14.70;;;11.10;50.50;;;;;;5131532;27;20453;-83
2022/03/31 05:07:04;;;;;;;25.37;14.30;;;11.20;50.50;;;;;;5131666;27;20451;-84
2022/03/31 05:09:31;;;;;;;27.50;13.30;;;11.10;50.20;;;;;;5132765;27;20452;-83
2022/03/31 05:11:58;;;;;;;25.43;13.43;;;11.20;50.30;;;;;;5131715;27;20446;-82
2022/03/31 05:14:25;;;;;;;23.43;13.40;;;11.30;50.70;;;;;;5125943;27;20462;-83
2022/03/31 05:16:52;;;;;;;24.30;13.73;;;11.40;50.90;;;;;;5126538;27;20477;-84
2022/03/31 05:19:19;;;;;;;26.77;13.80;;;11.40;50.40;;;;;;5130776;27;20453;-84
2022/03/31 05:21:46;;;;;;;27.87;13.13;;;11.10;49.90;;;;;;5133131;27;20485;-83
2022/03/31 05:24:15;;;;;;;16.73;11.73;;;11.10;50.50;;;;;;5127857;27;20449;-84
2022/03/31 05:26:42;;;;;;;20.30;12.30;;;11.20;50.50;;;;;;5128853;27;20438;-81
2022/03/31 05:29:09;;;;;;;26.70;16.03;;;11.10;50.40;;;;;;5127755;27;20553;-84
2022/03/31 05:31:36;;;;;;;28.73;14.83;;;11.00;50.10;;;;;;5131544;27;20466;-84
2022/03/31 05:34:03;;;;;;;25.80;14.77;;;11.10;50.60;;;;;;5129695;27;21224;-83
2022/03/31 05:36:30;;;;;;;25.80;13.63;;;11.10;50.50;;;;;;5115647;27;21006;-83
2022/03/31 05:38:57;;;;;;;43.00;22.87;;;11.00;50.30;;;;;;5128866;27;20441;-84
2022/03/31 05:41:26;;;;;;;31.13;19.33;;;10.90;50.60;;;;;;5128532;27;21012;-83
2022/03/31 05:43:53;;;;;;;33.50;19.33;;;10.90;50.90;;;;;;5129596;27;20454;-82
2022/03/31 05:46:22;;;;;;;63.70;37.43;;;11.00;51.40;;;;;;5128574;27;20458;-84
2022/03/31 05:48:49;;;;;;;28.87;14.73;;;11.10;50.70;;;;;;5129806;27;20988;-83
2022/03/31 05:51:17;;;;;;;27.40;14.00;;;11.00;50.30;;;;;;5108461;27;20527;-82
2022/03/31 05:53:44;;;;;;;21.97;14.13;;;10.70;50.40;;;;;;5127525;27;20446;-84
2022/03/31 05:56:11;;;;;;;27.00;12.03;;;10.50;52.40;;;;;;5129710;27;21055;-85
2022/03/31 05:58:40;;;;;;;25.20;13.23;;;10.60;51.40;;;;;;5127043;27;20451;-84
2022/03/31 06:01:07;;;;;;;23.27;12.30;;;10.60;51.10;;;;;;5127637;27;20473;-85
2022/03/31 06:03:34;;;;;;;29.87;17.67;;;10.60;51.50;;;;;;5129755;27;21042;-84
2022/03/31 06:06:01;;;;;;;21.60;11.57;;;10.80;51.70;;;;;;5129410;27;20480;-84
2022/03/31 06:08:28;;;;;;;24.83;12.87;;;10.90;51.00;;;;;;5132740;27;20484;-83
2022/03/31 06:10:55;;;;;;;26.47;13.40;;;10.80;50.70;;;;;;5131655;27;20467;-84
2022/03/31 06:13:22;;;;;;;23.57;14.53;;;10.70;50.90;;;;;;5132276;27;20491;-84
2022/03/31 06:15:50;;;;;;;23.93;13.80;;;10.80;51.50;;;;;;5131143;27;20441;-84
2022/03/31 06:18:18;;;;;;;21.13;11.97;;;11.00;52.40;;;;;;5112720;27;20449;-84
2022/03/31 06:20:45;;;;;;;21.83;12.90;;;11.10;51.10;;;;;;5132397;27;20469;-83
2022/03/31 06:23:12;;;;;;;30.23;14.70;;;10.90;50.90;;;;;;5129021;27;20441;-84
2022/03/31 06:25:42;;;;;;;25.13;13.33;;;10.90;51.20;;;;;;5113825;27;20464;-84
2022/03/31 06:28:09;;;;;;;28.87;13.63;;;10.90;51.20;;;;;;5129286;27;21200;-84
2022/03/31 06:30:36;;;;;;;21.10;12.67;;;10.80;51.00;;;;;;5131374;27;20461;-84
2022/03/31 06:33:05;;;;;;;24.70;13.80;;;10.90;51.50;;;;;;5129182;27;21198;-84
2022/03/31 06:35:32;;;;;;;23.73;12.83;;;11.00;51.00;;;;;;5127854;27;20446;-84
2022/03/31 06:37:59;;;;;;;23.13;11.57;;;11.10;50.90;;;;;;5128518;27;20446;-84
2022/03/31 06:40:27;;;;;;;29.30;14.13;;;11.20;50.80;;;;;;5129898;27;20462;-84
2022/03/31 06:42:54;;;;;;;27.10;14.40;;;11.30;50.70;;;;;;5129267;27;20457;-85
2022/03/31 06:45:21;;;;;;;23.13;12.50;;;11.00;50.80;;;;;;5111884;27;20457;-85
2022/03/31 06:47:48;;;;;;;27.50;14.83;;;11.00;51.10;;;;;;5129114;27;20512;-83
2022/03/31 06:50:16;;;;;;;24.23;14.30;;;10.70;51.70;;;;;;5119319;27;20537;-84
2022/03/31 06:52:43;;;;;;;27.90;13.87;;;10.90;51.60;;;;;;5129441;27;20437;-85
2022/03/31 06:55:10;;;;;;;30.27;14.77;;;10.80;51.70;;;;;;5115054;27;21060;-85
2022/03/31 06:57:37;;;;;;;27.60;15.03;;;11.00;51.70;;;;;;5129934;27;20445;-84
2022/03/31 07:00:06;;;;;;;120.33;57.37;;;11.00;51.60;;;;;;5131010;27;20472;-84
2022/03/31 07:02:33;;;;;;;27.77;17.00;;;10.90;51.30;;;;;;5129854;27;20928;-84
2022/03/31 07:05:00;;;;;;;29.80;14.70;;;11.00;51.50;;;;;;5126817;27;20453;-83
2022/03/31 07:07:29;;;;;;;28.50;14.93;;;11.10;51.40;;;;;;5132598;27;20913;-84
2022/03/31 07:09:57;;;;;;;31.40;16.00;;;11.20;51.60;;;;;;5129760;27;20481;-84
2022/03/31 07:12:24;;;;;;;28.43;14.70;;;11.20;51.10;;;;;;5128806;27;20481;-84
2022/03/31 07:14:51;;;;;;;24.70;13.10;;;11.20;51.10;;;;;;5127720;27;20460;-85
2022/03/31 07:17:18;;;;;;;22.80;13.70;;;11.30;50.90;;;;;;5111397;27;20451;-84
2022/03/31 07:19:45;;;;;;;23.13;13.20;;;11.50;51.00;;;;;;5130730;27;20451;-84
2022/03/31 07:22:12;;;;;;;26.97;15.57;;;11.60;51.70;;;;;;5127294;27;20449;-85
2022/03/31 07:24:42;;;;;;;29.00;14.50;;;11.60;50.90;;;;;;5129273;27;20441;-83
2022/03/31 07:27:09;;;;;;;34.07;14.47;;;11.70;50.80;;;;;;5126902;27;20442;-83
2022/03/31 07:29:36;;;;;;;27.27;13.90;;;11.70;50.80;;;;;;5129902;27;21003;-86
2022/03/31 07:32:03;;;;;;;27.10;15.07;;;11.70;50.30;;;;;;5129350;27;20466;-84
2022/03/31 07:34:31;;;;;;;24.17;13.77;;;11.70;50.00;;;;;;5128901;27;20457;-84
2022/03/31 07:36:59;;;;;;;24.20;15.23;;;11.70;49.80;;;;;;5133526;27;20454;-84
2022/03/31 07:39:26;;;;;;;29.67;15.80;;;11.70;50.50;;;;;;5113358;27;20457;-84
2022/03/31 07:41:55;;;;;;;24.53;14.57;;;11.90;51.00;;;;;;5132361;27;20477;-84
2022/03/31 07:44:22;;;;;;;32.53;15.53;;;11.70;50.20;;;;;;5131665;27;20480;-84
2022/03/31 07:46:51;;;;;;;32.07;15.17;;;11.50;50.70;;;;;;5128572;27;20438;-84
2022/03/31 07:49:18;;;;;;;40.03;15.37;;;11.50;51.10;;;;;;5129806;27;20469;-84
2022/03/31 07:51:45;;;;;;;25.93;14.47;;;11.40;51.20;;;;;;5128790;27;20477;-84
2022/03/31 07:54:12;;;;;;;30.30;16.53;;;11.20;51.20;;;;;;5112248;27;20450;-84
2022/03/31 07:56:39;;;;;;;23.23;14.50;;;11.30;51.60;;;;;;5132623;27;20448;-82
2022/03/31 07:59:07;;;;;;;25.10;15.07;;;11.40;51.30;;;;;;5130241;27;20527;-84
2022/03/31 08:01:34;;;;;;;25.47;13.17;;;11.50;51.30;;;;;;5131760;27;20473;-83
2022/03/31 08:04:03;;;;;;;25.47;13.63;;;11.30;50.80;;;;;;5113344;27;20457;-84
2022/03/31 08:06:30;;;;;;;29.67;15.70;;;11.20;52.00;;;;;;5131535;27;20441;-85
2022/03/31 08:08:57;;;;;;;25.20;13.90;;;11.30;51.80;;;;;;5129978;27;21006;-84
2022/03/31 08:11:25;;;;;;;26.47;13.63;;;11.30;51.80;;;;;;5130667;27;20992;-84
2022/03/31 08:13:52;;;;;;;32.30;15.23;;;11.50;52.00;;;;;;5128099;27;21085;-85
2022/03/31 08:16:20;;;;;;;26.83;15.20;;;11.10;51.90;;;;;;5129884;27;20448;-81
2022/03/31 08:18:47;;;;;;;26.43;13.37;;;11.20;52.50;;;;;;5132419;27;20438;-84
2022/03/31 08:21:14;;;;;;;29.70;14.57;;;11.40;52.00;;;;;;5132504;27;20469;-84
2022/03/31 08:23:41;;;;;;;27.67;14.87;;;11.60;52.30;;;;;;5131099;27;20438;-84
2022/03/31 08:26:08;;;;;;;24.97;13.57;;;11.80;51.10;;;;;;5128675;27;20948;-81
2022/03/31 08:28:36;;;;;;;23.90;13.27;;;11.80;50.70;;;;;;5129992;27;20480;-85
2022/03/31 08:31:03;;;;;;;24.73;13.67;;;11.60;51.40;;;;;;5131530;27;20457;-83
2022/03/31 08:33:31;;;;;;;24.40;14.27;;;11.50;51.30;;;;;;5130906;27;20441;-84
2022/03/31 08:35:58;;;;;;;28.60;15.50;;;11.50;51.80;;;;;;5131401;27;20451;-84
2022/03/31 08:38:25;;;;;;;32.47;15.03;;;11.50;52.40;;;;;;5131774;27;20441;-84
2022/03/31 08:40:56;;;;;;;33.73;15.20;;;11.40;51.60;;;;;;5120605;27;20928;-84
2022/03/31 08:43:26;;;;;;;29.23;14.53;;;11.30;52.00;;;;;;5130895;27;20524;-84
2022/03/31 08:45:55;;;;;;;26.03;15.03;;;11.40;52.50;;;;;;5128010;27;20454;-85
2022/03/31 08:48:24;;;;;;;29.40;14.30;;;11.30;52.50;;;;;;5130776;27;20446;-84
2022/03/31 08:50:53;;;;;;;29.57;15.77;;;11.50;52.60;;;;;;5127364;27;20472;-84
2022/03/31 08:53:20;;;;;;;28.27;15.20;;;11.60;52.40;;;;;;5130838;27;20972;-85
2022/03/31 08:55:47;;;;;;;26.40;15.40;;;11.60;52.10;;;;;;5130050;27;20478;-86
2022/03/31 08:58:14;;;;;;;31.67;15.20;;;11.60;51.90;;;;;;5127653;27;20503;-86
2022/03/31 09:00:42;;;;;;;28.07;14.83;;;11.80;52.20;;;;;;5135608;27;20483;-85
2022/03/31 09:03:09;;;;;;;30.53;15.80;;;11.60;51.50;;;;;;5134639;27;20461;-85
2022/03/31 09:05:38;;;;;;;31.40;15.80;;;11.40;51.90;;;;;;5131037;27;20534;-83
2022/03/31 09:08:09;;;;;;;29.10;15.07;;;11.40;52.40;;;;;;5134152;27;20434;-83
2022/03/31 09:10:38;;;;;;;27.83;15.67;;;11.50;52.50;;;;;;5133182;27;20464;-83
2022/03/31 09:13:17;;;;;;;23.57;13.87;;;11.70;52.30;;;;;;5134073;27;20464;-84
2022/03/31 09:15:49;;;;;;;29.40;15.50;;;11.80;52.20;;;;;;5134531;27;20445;-84
2022/03/31 09:18:17;;;;;;;26.30;15.07;;;11.70;52.00;;;;;;5133975;27;20448;-84
2022/03/31 09:20:46;;;;;;;31.57;15.60;;;11.60;52.30;;;;;;5132211;27;20468;-84
2022/03/31 09:23:18;;;;;;;30.90;15.23;;;11.40;52.50;;;;;;5132110;27;20502;-84
2022/03/31 09:25:46;;;;;;;25.07;14.47;;;11.40;53.40;;;;;;5128494;27;21065;-84
2022/03/31 09:28:16;;;;;;;30.00;15.57;;;11.40;53.10;;;;;;5129741;27;20448;-84
2022/03/31 09:30:47;;;;;;;29.70;15.23;;;11.50;53.10;;;;;;5132967;27;20461;-84
2022/03/31 09:33:26;;;;;;;30.93;14.07;;;11.80;52.90;;;;;;5130527;27;20442;-84
2022/03/31 09:35:57;;;;;;;31.03;15.93;;;12.00;52.50;;;;;;5129966;27;20476;-84
2022/03/31 09:38:26;;;;;;;24.50;14.07;;;12.10;51.30;;;;;;5129708;27;20444;-84
2022/03/31 09:40:53;;;;;;;24.83;14.13;;;12.00;51.60;;;;;;5114495;27;20973;-85
2022/03/31 09:43:20;;;;;;;25.23;14.83;;;12.00;51.50;;;;;;5130361;27;21190;-84
2022/03/31 09:45:48;;;;;;;31.67;15.80;;;12.20;51.70;;;;;;5129423;27;20533;-85
2022/03/31 09:48:20;;;;;;;28.20;14.50;;;12.20;51.50;;;;;;5104149;27;20538;-85
2022/03/31 09:50:47;;;;;;;32.57;14.53;;;12.20;51.30;;;;;;5130154;27;20484;-85
2022/03/31 09:53:16;;;;;;;30.17;15.53;;;12.10;51.20;;;;;;5130284;27;20450;-84
2022/03/31 09:55:45;;;;;;;28.50;14.40;;;12.20;51.50;;;;;;5130545;27;20484;-84
2022/03/31 09:58:18;;;;;;;26.23;14.77;;;12.30;51.20;;;;;;5128908;27;20456;-85
2022/03/31 10:00:45;;;;;;;27.70;15.57;;;12.40;51.00;;;;;;5129426;27;20520;-83
2022/03/31 10:03:15;;;;;;;27.57;14.93;;;12.40;51.20;;;;;;5131967;27;20461;-82
2022/03/31 10:05:45;;;;;;;33.83;16.73;;;12.10;51.20;;;;;;5132231;27;20465;-83
2022/03/31 10:08:13;;;;;;;32.13;14.47;;;12.20;52.00;;;;;;5131440;27;20868;-85
2022/03/31 10:10:40;;;;;;;24.53;15.87;;;12.10;52.00;;;;;;5128877;27;20849;-84
2022/03/31 10:13:16;;;;;;;29.87;15.27;;;12.20;51.50;;;;;;5133337;27;20460;-84
2022/03/31 10:15:45;;;;;;;32.70;14.13;;;12.30;51.60;;;;;;5132356;27;20445;-84
2022/03/31 10:18:14;;;;;;;29.73;15.80;;;12.20;51.30;;;;;;5131148;27;20449;-84
2022/03/31 10:20:54;;;;;;;26.07;14.30;;;12.30;51.20;;;;;;5130563;27;20492;-84
2022/03/31 10:26:06;;;;;;;27.53;13.00;;;12.70;51.50;;;;;;5095939;27;20456;-85
2022/03/31 10:28:34;;;;;;;26.60;14.80;;;12.60;51.30;;;;;;5134286;27;20451;-84
2022/03/31 10:31:02;;;;;;;29.53;16.17;;;12.70;51.00;;;;;;5130570;27;20600;-84
2022/03/31 10:33:32;;;;;;;26.43;13.90;;;12.80;51.00;;;;;;5133456;27;20449;-83
2022/03/31 10:36:09;;;;;;;25.70;15.40;;;13.00;50.80;;;;;;5130644;27;20453;-86
2022/03/31 10:38:37;;;;;;;21.67;12.33;;;13.00;49.80;;;;;;5132102;27;20828;-85
2022/03/31 10:41:08;;;;;;;27.43;14.30;;;12.90;50.70;;;;;;5132216;27;20714;-85
2022/03/31 10:43:45;;;;;;;24.83;14.40;;;12.70;50.80;;;;;;5131787;27;20438;-84
2022/03/31 10:46:17;;;;;;;33.37;16.17;;;12.70;51.20;;;;;;5131566;27;20449;-84
2022/03/31 10:48:52;;;;;;;21.10;12.80;;;13.00;50.90;;;;;;5104891;27;20524;-84
2022/03/31 10:51:19;;;;;;;26.10;13.67;;;13.00;50.30;;;;;;5132605;27;20476;-85
2022/03/31 10:53:50;;;;;;;21.90;13.80;;;12.90;50.30;;;;;;5131179;27;20445;-83
2022/03/31 10:56:20;;;;;;;30.13;15.90;;;12.80;50.90;;;;;;5132674;27;20429;-86
2022/03/31 10:58:50;;;;;;;25.60;13.77;;;12.90;51.20;;;;;;5134325;27;20941;-84
2022/03/31 11:01:18;;;;;;;26.57;14.70;;;12.90;50.70;;;;;;5129826;27;21035;-86
2022/03/31 11:03:50;;;;;;;28.97;14.30;;;12.90;50.60;;;;;;5130306;27;20454;-84
2022/03/31 11:06:17;;;;;;;36.73;17.93;;;13.20;50.30;;;;;;5125594;27;20581;-83
2022/03/31 11:08:46;;;;;;;31.17;14.00;;;13.10;50.20;;;;;;5128905;27;20551;-84
2022/03/31 11:11:21;;;;;;;25.97;14.13;;;13.30;50.50;;;;;;5128478;27;21101;-85
2022/03/31 11:13:50;;;;;;;25.03;15.00;;;13.10;50.00;;;;;;5129173;27;20453;-81
2022/03/31 11:16:17;;;;;;;27.27;14.33;;;13.10;49.70;;;;;;5128243;27;20454;-83
2022/03/31 11:18:54;;;;;;;20.60;12.97;;;13.10;50.30;;;;;;5128473;27;20965;-85
2022/03/31 11:21:21;;;;;;;28.60;14.07;;;13.10;50.20;;;;;;5128531;27;21263;-84
2022/03/31 11:23:49;;;;;;;22.20;13.10;;;12.80;50.10;;;;;;5129183;27;20456;-84
2022/03/31 11:26:17;;;;;;;28.07;13.97;;;12.70;50.90;;;;;;5129025;27;20450;-84
2022/03/31 11:28:45;;;;;;;20.73;12.60;;;12.30;51.60;;;;;;5128442;27;20457;-87
2022/03/31 11:31:17;;;;;;;27.43;15.20;;;12.30;51.90;;;;;;5126966;27;20493;-84
2022/03/31 11:33:45;;;;;;;24.00;13.07;;;12.30;52.10;;;;;;5129868;27;20461;-84
2022/03/31 11:36:12;;;;;;;25.40;15.03;;;12.60;51.00;;;;;;5109001;27;21194;-84
2022/03/31 11:38:39;;;;;;;24.20;14.23;;;12.70;50.80;;;;;;5110242;27;20445;-84
2022/03/31 11:41:07;;;;;;;21.07;13.43;;;12.60;50.60;;;;;;5128297;27;20565;-84
2022/03/31 11:43:34;;;;;;;26.30;13.77;;;12.70;50.90;;;;;;5128031;27;20446;-84
2022/03/31 11:46:01;;;;;;;24.00;13.13;;;12.70;51.30;;;;;;5126256;27;20446;-85
2022/03/31 11:48:35;;;;;;;29.93;15.03;;;12.90;51.20;;;;;;5125933;27;20450;-84
2022/03/31 11:51:04;;;;;;;20.03;11.00;;;13.00;50.70;;;;;;5128476;27;20480;-86
2022/03/31 11:53:33;;;;;;;23.60;12.37;;;13.10;50.10;;;;;;5130219;27;20448;-85
2022/03/31 11:56:02;;;;;;;26.10;15.10;;;13.20;50.10;;;;;;5128207;27;20453;-85
2022/03/31 11:58:30;;;;;;;24.53;12.73;;;13.30;49.80;;;;;;5130565;27;20478;-84
2022/03/31 12:00:58;;;;;;;25.57;13.90;;;13.20;49.40;;;;;;5129671;27;20535;-85
2022/03/31 12:03:35;;;;;;;26.73;13.43;;;13.20;49.60;;;;;;5131522;27;21003;-84
2022/03/31 12:06:04;;;;;;;27.90;14.63;;;13.30;50.10;;;;;;5130304;27;20436;-83
2022/03/31 12:08:32;;;;;;;30.80;15.23;;;13.30;49.40;;;;;;5131862;27;20453;-84
2022/03/31 12:11:00;;;;;;;31.40;14.90;;;13.30;49.80;;;;;;5131331;27;20469;-83
2022/03/31 12:13:29;;;;;;;23.10;12.40;;;13.40;49.70;;;;;;5131182;27;20445;-84
2022/03/31 12:16:07;;;;;;;20.50;12.17;;;13.60;49.30;;;;;;5129565;27;20468;-84
2022/03/31 12:18:37;;;;;;;22.43;12.13;;;13.50;49.00;;;;;;5128114;27;20436;-85
2022/03/31 12:21:06;;;;;;;26.67;12.67;;;13.30;48.80;;;;;;5108138;27;20457;-83
2022/03/31 12:23:33;;;;;;;26.33;14.60;;;13.40;49.40;;;;;;5129409;27;20515;-86
2022/03/31 12:26:00;;;;;;;22.93;11.67;;;13.50;49.00;;;;;;5127455;27;20557;-86
2022/03/31 12:28:27;;;;;;;20.80;12.10;;;13.40;49.00;;;;;;5126686;27;20820;-85
2022/03/31 12:30:55;;;;;;;21.07;12.20;;;13.30;49.50;;;;;;5129603;27;20936;-86
2022/03/31 12:33:25;;;;;;;24.47;12.00;;;13.10;49.70;;;;;;5129978;27;20450;-85
2022/03/31 12:36:02;;;;;;;20.23;11.67;;;13.20;49.80;;;;;;5131174;27;20936;-85
2022/03/31 12:38:37;;;;;;;25.60;12.90;;;13.20;49.80;;;;;;5133638;27;20461;-84